sensor_id;sensor_type;location;lat;lon;timestamp;temperature;humidity
702;DHT22;334;48.808;9.222;2023-06-04T00:00:47;20.50;1.00
702;DHT22;334;48.808;9.222;2023-06-04T00:01:49;20.60;1.00
702;DHT22;334;48.808;9.222;2023-06-04T00:02:51;20.50;1.00
702;DHT22;334;48.808;9.222;2023-06-04T00:03:53;20.50;1.00
702;DHT22;334;48.808;9.222;2023-06-04T00:04:56;20.50;1.00
702;DHT22;334;48.808;9.222;2023-06-04T00:05:58;20.50;1.00
702;DHT22;334;48.808;9.222;2023-06-04T00:07:00;20.50;1.00
702;DHT22;334;48.808;9.222;2023-06-04T00:08:02;20.40;1.00
702;DHT22;334;48.808;9.222;2023-06-04T00:09:04;20.40;1.00
702;DHT22;334;48.808;9.222;2023-06-04T00:10:06;20.40;1.00
702;DHT22;334;48.808;9.222;2023-06-04T00:11:08;20.40;1.00
702;DHT22;334;48.808;9.222;2023-06-04T00:12:10;20.40;1.00
702;DHT22;334;48.808;9.222;2023-06-04T00:13:12;20.40;1.00
702;DHT22;334;48.808;9.222;2023-06-04T00:14:15;20.30;1.00
702;DHT22;334;48.808;9.222;2023-06-04T00:15:17;20.30;1.00
702;DHT22;334;48.808;9.222;2023-06-04T00:16:19;20.30;1.00
702;DHT22;334;48.808;9.222;2023-06-04T00:17:22;20.30;1.00
702;DHT22;334;48.808;9.222;2023-06-04T00:18:24;20.20;1.00
702;DHT22;334;48.808;9.222;2023-06-04T00:19:27;20.30;1.00
702;DHT22;334;48.808;9.222;2023-06-04T00:20:29;20.30;1.00
702;DHT22;334;48.808;9.222;2023-06-04T00:21:31;20.30;1.00
702;DHT22;334;48.808;9.222;2023-06-04T00:22:34;20.30;1.00
702;DHT22;334;48.808;9.222;2023-06-04T00:23:37;20.20;1.00
702;DHT22;334;48.808;9.222;2023-06-04T00:24:39;20.20;1.00
702;DHT22;334;48.808;9.222;2023-06-04T00:25:45;20.20;1.00
702;DHT22;334;48.808;9.222;2023-06-04T00:26:47;20.20;1.00
702;DHT22;334;48.808;9.222;2023-06-04T00:27:50;20.10;1.00
702;DHT22;334;48.808;9.222;2023-06-04T00:28:51;20.10;1.00
702;DHT22;334;48.808;9.222;2023-06-04T00:29:53;20.10;1.00
702;DHT22;334;48.808;9.222;2023-06-04T00:30:55;20.10;1.00
702;DHT22;334;48.808;9.222;2023-06-04T00:31:57;20.10;1.00
702;DHT22;334;48.808;9.222;2023-06-04T00:33:01;20.00;1.00
702;DHT22;334;48.808;9.222;2023-06-04T00:34:04;20.00;1.00
702;DHT22;334;48.808;9.222;2023-06-04T00:35:06;20.00;1.00
702;DHT22;334;48.808;9.222;2023-06-04T00:36:08;20.00;1.00
702;DHT22;334;48.808;9.222;2023-06-04T00:37:10;19.90;1.00
702;DHT22;334;48.808;9.222;2023-06-04T00:38:12;20.00;1.00
702;DHT22;334;48.808;9.222;2023-06-04T00:39:14;19.90;1.00
702;DHT22;334;48.808;9.222;2023-06-04T00:40:15;19.90;1.00
702;DHT22;334;48.808;9.222;2023-06-04T00:41:19;19.90;1.00
702;DHT22;334;48.808;9.222;2023-06-04T00:42:22;19.90;1.00
702;DHT22;334;48.808;9.222;2023-06-04T00:43:26;19.90;1.00
702;DHT22;334;48.808;9.222;2023-06-04T00:44:28;19.90;1.00
702;DHT22;334;48.808;9.222;2023-06-04T00:45:31;19.90;1.00
702;DHT22;334;48.808;9.222;2023-06-04T00:46:34;19.90;1.00
702;DHT22;334;48.808;9.222;2023-06-04T00:47:37;19.90;1.00
702;DHT22;334;48.808;9.222;2023-06-04T00:48:39;19.80;1.00
702;DHT22;334;48.808;9.222;2023-06-04T00:49:44;19.80;1.00
702;DHT22;334;48.808;9.222;2023-06-04T00:50:47;19.80;1.00
702;DHT22;334;48.808;9.222;2023-06-04T00:51:50;19.80;1.00
702;DHT22;334;48.808;9.222;2023-06-04T00:52:52;19.80;1.00
702;DHT22;334;48.808;9.222;2023-06-04T00:53:54;19.80;1.00
702;DHT22;334;48.808;9.222;2023-06-04T00:54:56;19.80;1.00
702;DHT22;334;48.808;9.222;2023-06-04T00:55:58;19.70;1.00
702;DHT22;334;48.808;9.222;2023-06-04T00:57:00;19.80;1.00
702;DHT22;334;48.808;9.222;2023-06-04T00:58:02;19.80;1.00
702;DHT22;334;48.808;9.222;2023-06-04T00:59:07;19.80;1.00
702;DHT22;334;48.808;9.222;2023-06-04T01:00:11;19.80;1.00
702;DHT22;334;48.808;9.222;2023-06-04T01:01:31;19.80;1.00
702;DHT22;334;48.808;9.222;2023-06-04T01:02:37;19.70;1.00
702;DHT22;334;48.808;9.222;2023-06-04T01:03:42;19.70;1.00
702;DHT22;334;48.808;9.222;2023-06-04T01:07:26;19.70;1.00
702;DHT22;334;48.808;9.222;2023-06-04T01:08:33;19.70;1.00
702;DHT22;334;48.808;9.222;2023-06-04T01:09:36;19.70;1.00
702;DHT22;334;48.808;9.222;2023-06-04T01:10:50;19.70;1.00
702;DHT22;334;48.808;9.222;2023-06-04T01:11:53;19.60;1.00
702;DHT22;334;48.808;9.222;2023-06-04T01:12:55;19.60;1.00
702;DHT22;334;48.808;9.222;2023-06-04T01:13:56;19.60;1.00
702;DHT22;334;48.808;9.222;2023-06-04T01:14:59;19.60;1.00
702;DHT22;334;48.808;9.222;2023-06-04T01:16:00;19.60;1.00
702;DHT22;334;48.808;9.222;2023-06-04T01:17:20;19.50;1.00
702;DHT22;334;48.808;9.222;2023-06-04T01:18:29;19.50;1.00
702;DHT22;334;48.808;9.222;2023-06-04T01:21:08;19.50;1.00
702;DHT22;334;48.808;9.222;2023-06-04T01:22:19;19.50;1.00
702;DHT22;334;48.808;9.222;2023-06-04T01:23:39;19.50;1.00
702;DHT22;334;48.808;9.222;2023-06-04T01:24:50;19.40;1.00
702;DHT22;334;48.808;9.222;2023-06-04T01:25:54;19.40;1.00
702;DHT22;334;48.808;9.222;2023-06-04T01:26:57;19.40;1.00
702;DHT22;334;48.808;9.222;2023-06-04T01:27:59;19.40;1.00
702;DHT22;334;48.808;9.222;2023-06-04T01:29:02;19.40;1.00
702;DHT22;334;48.808;9.222;2023-06-04T01:30:05;19.30;1.00
702;DHT22;334;48.808;9.222;2023-06-04T01:31:07;19.30;1.00
702;DHT22;334;48.808;9.222;2023-06-04T01:32:10;19.30;1.00
702;DHT22;334;48.808;9.222;2023-06-04T01:33:16;19.30;1.00
702;DHT22;334;48.808;9.222;2023-06-04T01:34:18;19.30;1.00
702;DHT22;334;48.808;9.222;2023-06-04T01:35:21;19.30;1.00
702;DHT22;334;48.808;9.222;2023-06-04T01:36:23;19.30;1.00
702;DHT22;334;48.808;9.222;2023-06-04T01:37:25;19.30;1.00
702;DHT22;334;48.808;9.222;2023-06-04T01:38:28;19.30;1.00
702;DHT22;334;48.808;9.222;2023-06-04T01:39:29;19.30;1.00
702;DHT22;334;48.808;9.222;2023-06-04T01:40:32;19.30;1.00
702;DHT22;334;48.808;9.222;2023-06-04T01:41:34;19.30;1.00
702;DHT22;334;48.808;9.222;2023-06-04T01:42:36;19.30;1.00
702;DHT22;334;48.808;9.222;2023-06-04T01:43:37;19.30;1.00
702;DHT22;334;48.808;9.222;2023-06-04T01:44:39;19.30;1.00
702;DHT22;334;48.808;9.222;2023-06-04T01:45:41;19.20;1.00
702;DHT22;334;48.808;9.222;2023-06-04T01:46:43;19.20;1.00
702;DHT22;334;48.808;9.222;2023-06-04T01:47:46;19.30;1.00
702;DHT22;334;48.808;9.222;2023-06-04T01:48:48;19.20;1.00
702;DHT22;334;48.808;9.222;2023-06-04T01:49:50;19.20;1.00
702;DHT22;334;48.808;9.222;2023-06-04T01:50:52;19.20;1.00
702;DHT22;334;48.808;9.222;2023-06-04T01:51:55;19.20;1.00
702;DHT22;334;48.808;9.222;2023-06-04T01:52:58;19.20;1.00
702;DHT22;334;48.808;9.222;2023-06-04T01:54:00;19.20;1.00
702;DHT22;334;48.808;9.222;2023-06-04T01:55:06;19.20;1.00
702;DHT22;334;48.808;9.222;2023-06-04T01:56:09;19.20;1.00
702;DHT22;334;48.808;9.222;2023-06-04T01:57:11;19.20;1.00
702;DHT22;334;48.808;9.222;2023-06-04T01:58:13;19.20;1.00
702;DHT22;334;48.808;9.222;2023-06-04T01:59:19;19.10;1.00
702;DHT22;334;48.808;9.222;2023-06-04T02:00:20;19.10;1.00
702;DHT22;334;48.808;9.222;2023-06-04T02:01:22;19.10;1.00
702;DHT22;334;48.808;9.222;2023-06-04T02:02:24;19.10;1.00
702;DHT22;334;48.808;9.222;2023-06-04T02:03:27;19.10;1.00
702;DHT22;334;48.808;9.222;2023-06-04T02:04:29;19.10;1.00
702;DHT22;334;48.808;9.222;2023-06-04T02:05:31;19.10;1.00
702;DHT22;334;48.808;9.222;2023-06-04T02:06:33;19.00;1.00
702;DHT22;334;48.808;9.222;2023-06-04T02:07:37;19.00;1.00
702;DHT22;334;48.808;9.222;2023-06-04T02:08:40;19.00;1.00
702;DHT22;334;48.808;9.222;2023-06-04T02:09:43;19.10;1.00
702;DHT22;334;48.808;9.222;2023-06-04T02:10:46;19.10;1.00
702;DHT22;334;48.808;9.222;2023-06-04T02:11:49;18.90;1.00
702;DHT22;334;48.808;9.222;2023-06-04T02:13:01;18.90;1.00
702;DHT22;334;48.808;9.222;2023-06-04T02:14:04;18.90;1.00
702;DHT22;334;48.808;9.222;2023-06-04T02:15:09;18.90;1.00
702;DHT22;334;48.808;9.222;2023-06-04T02:16:11;18.90;1.00
702;DHT22;334;48.808;9.222;2023-06-04T02:17:36;18.90;1.00
702;DHT22;334;48.808;9.222;2023-06-04T02:18:41;18.90;1.00
702;DHT22;334;48.808;9.222;2023-06-04T02:19:44;18.80;1.00
702;DHT22;334;48.808;9.222;2023-06-04T02:20:47;18.80;1.00
702;DHT22;334;48.808;9.222;2023-06-04T02:21:50;18.80;1.00
702;DHT22;334;48.808;9.222;2023-06-04T02:22:51;18.80;1.00
702;DHT22;334;48.808;9.222;2023-06-04T02:23:53;18.80;1.00
702;DHT22;334;48.808;9.222;2023-06-04T02:24:55;18.80;1.00
702;DHT22;334;48.808;9.222;2023-06-04T02:25:57;18.70;1.00
702;DHT22;334;48.808;9.222;2023-06-04T02:26:59;18.70;1.00
702;DHT22;334;48.808;9.222;2023-06-04T02:28:01;18.70;1.00
702;DHT22;334;48.808;9.222;2023-06-04T02:29:03;18.70;1.00
702;DHT22;334;48.808;9.222;2023-06-04T02:30:06;18.70;1.00
702;DHT22;334;48.808;9.222;2023-06-04T02:31:08;18.70;1.00
702;DHT22;334;48.808;9.222;2023-06-04T02:32:11;18.70;1.00
702;DHT22;334;48.808;9.222;2023-06-04T02:33:14;18.70;1.00
702;DHT22;334;48.808;9.222;2023-06-04T02:34:16;18.60;1.00
702;DHT22;334;48.808;9.222;2023-06-04T02:35:18;18.60;1.00
702;DHT22;334;48.808;9.222;2023-06-04T02:36:20;18.60;1.00
702;DHT22;334;48.808;9.222;2023-06-04T02:37:22;18.60;1.00
702;DHT22;334;48.808;9.222;2023-06-04T02:38:24;18.60;1.00
702;DHT22;334;48.808;9.222;2023-06-04T02:39:26;18.60;1.00
702;DHT22;334;48.808;9.222;2023-06-04T02:40:28;18.60;1.00
702;DHT22;334;48.808;9.222;2023-06-04T02:41:30;18.50;1.00
702;DHT22;334;48.808;9.222;2023-06-04T02:42:32;18.50;1.00
702;DHT22;334;48.808;9.222;2023-06-04T02:43:34;18.50;1.00
702;DHT22;334;48.808;9.222;2023-06-04T02:44:36;18.50;1.00
702;DHT22;334;48.808;9.222;2023-06-04T02:45:38;18.50;1.00
702;DHT22;334;48.808;9.222;2023-06-04T02:46:40;18.60;1.00
702;DHT22;334;48.808;9.222;2023-06-04T02:47:42;18.60;1.00
702;DHT22;334;48.808;9.222;2023-06-04T02:48:45;18.60;1.00
702;DHT22;334;48.808;9.222;2023-06-04T02:49:47;18.50;1.00
702;DHT22;334;48.808;9.222;2023-06-04T02:50:49;18.50;1.00
702;DHT22;334;48.808;9.222;2023-06-04T02:51:52;18.50;1.00
702;DHT22;334;48.808;9.222;2023-06-04T02:52:54;18.50;1.00
702;DHT22;334;48.808;9.222;2023-06-04T02:53:56;18.40;1.00
702;DHT22;334;48.808;9.222;2023-06-04T02:54:58;18.50;1.00
702;DHT22;334;48.808;9.222;2023-06-04T02:56:00;18.50;1.00
702;DHT22;334;48.808;9.222;2023-06-04T02:57:02;18.40;1.00
702;DHT22;334;48.808;9.222;2023-06-04T02:58:04;18.40;1.00
702;DHT22;334;48.808;9.222;2023-06-04T02:59:06;18.40;1.00
702;DHT22;334;48.808;9.222;2023-06-04T03:00:15;18.30;1.00
702;DHT22;334;48.808;9.222;2023-06-04T03:01:20;18.30;1.00
702;DHT22;334;48.808;9.222;2023-06-04T03:02:23;18.30;1.00
702;DHT22;334;48.808;9.222;2023-06-04T03:03:24;18.30;1.00
702;DHT22;334;48.808;9.222;2023-06-04T03:04:29;18.30;1.00
702;DHT22;334;48.808;9.222;2023-06-04T03:05:36;18.30;1.00
702;DHT22;334;48.808;9.222;2023-06-04T03:06:41;18.30;1.00
702;DHT22;334;48.808;9.222;2023-06-04T03:07:46;18.30;1.00
702;DHT22;334;48.808;9.222;2023-06-04T03:08:50;18.20;1.00
702;DHT22;334;48.808;9.222;2023-06-04T03:09:52;18.20;1.00
702;DHT22;334;48.808;9.222;2023-06-04T03:10:54;18.20;1.00
702;DHT22;334;48.808;9.222;2023-06-04T03:11:59;18.20;1.00
702;DHT22;334;48.808;9.222;2023-06-04T03:13:03;18.20;1.00
702;DHT22;334;48.808;9.222;2023-06-04T03:14:05;18.20;1.00
702;DHT22;334;48.808;9.222;2023-06-04T03:15:08;18.10;1.00
702;DHT22;334;48.808;9.222;2023-06-04T03:16:10;18.10;1.00
702;DHT22;334;48.808;9.222;2023-06-04T03:17:12;18.10;1.00
702;DHT22;334;48.808;9.222;2023-06-04T03:18:14;18.10;1.00
702;DHT22;334;48.808;9.222;2023-06-04T03:19:16;18.10;1.00
702;DHT22;334;48.808;9.222;2023-06-04T03:20:18;18.00;1.00
702;DHT22;334;48.808;9.222;2023-06-04T03:21:20;18.00;1.00
702;DHT22;334;48.808;9.222;2023-06-04T03:22:22;18.00;1.00
702;DHT22;334;48.808;9.222;2023-06-04T03:23:25;18.00;1.00
702;DHT22;334;48.808;9.222;2023-06-04T03:24:27;17.90;1.00
702;DHT22;334;48.808;9.222;2023-06-04T03:25:29;17.90;1.00
702;DHT22;334;48.808;9.222;2023-06-04T03:26:30;17.90;1.00
702;DHT22;334;48.808;9.222;2023-06-04T03:27:33;17.70;1.00
702;DHT22;334;48.808;9.222;2023-06-04T03:28:35;17.90;1.00
702;DHT22;334;48.808;9.222;2023-06-04T03:29:37;18.00;1.00
702;DHT22;334;48.808;9.222;2023-06-04T03:30:40;18.00;1.00
702;DHT22;334;48.808;9.222;2023-06-04T03:31:44;18.00;1.00
702;DHT22;334;48.808;9.222;2023-06-04T03:32:47;18.00;1.00
702;DHT22;334;48.808;9.222;2023-06-04T03:33:49;18.00;1.00
702;DHT22;334;48.808;9.222;2023-06-04T03:34:51;18.00;1.00
702;DHT22;334;48.808;9.222;2023-06-04T03:35:53;18.00;1.00
702;DHT22;334;48.808;9.222;2023-06-04T03:36:55;18.10;1.00
702;DHT22;334;48.808;9.222;2023-06-04T03:37:57;18.10;1.00
702;DHT22;334;48.808;9.222;2023-06-04T03:38:59;18.10;1.00
702;DHT22;334;48.808;9.222;2023-06-04T03:40:02;18.10;1.00
702;DHT22;334;48.808;9.222;2023-06-04T03:41:04;18.10;1.00
702;DHT22;334;48.808;9.222;2023-06-04T03:42:06;18.10;1.00
702;DHT22;334;48.808;9.222;2023-06-04T03:43:10;18.10;1.00
702;DHT22;334;48.808;9.222;2023-06-04T03:44:16;18.10;1.00
702;DHT22;334;48.808;9.222;2023-06-04T03:45:18;18.10;1.00
702;DHT22;334;48.808;9.222;2023-06-04T03:46:20;18.10;1.00
702;DHT22;334;48.808;9.222;2023-06-04T03:47:22;18.10;1.00
702;DHT22;334;48.808;9.222;2023-06-04T03:48:24;18.10;1.00
702;DHT22;334;48.808;9.222;2023-06-04T03:49:26;18.10;1.00
702;DHT22;334;48.808;9.222;2023-06-04T03:50:28;18.00;1.00
702;DHT22;334;48.808;9.222;2023-06-04T03:51:30;18.00;1.00
702;DHT22;334;48.808;9.222;2023-06-04T03:52:32;18.00;1.00
702;DHT22;334;48.808;9.222;2023-06-04T03:53:34;18.00;1.00
702;DHT22;334;48.808;9.222;2023-06-04T03:54:37;18.00;1.00
702;DHT22;334;48.808;9.222;2023-06-04T03:55:39;17.90;1.00
702;DHT22;334;48.808;9.222;2023-06-04T03:56:41;17.90;1.00
702;DHT22;334;48.808;9.222;2023-06-04T03:57:43;17.90;1.00
702;DHT22;334;48.808;9.222;2023-06-04T03:58:45;17.80;1.00
702;DHT22;334;48.808;9.222;2023-06-04T03:59:47;17.80;1.00
702;DHT22;334;48.808;9.222;2023-06-04T04:00:49;17.80;1.00
702;DHT22;334;48.808;9.222;2023-06-04T04:01:51;17.80;1.00
702;DHT22;334;48.808;9.222;2023-06-04T04:02:53;17.80;1.00
702;DHT22;334;48.808;9.222;2023-06-04T04:03:56;17.80;1.00
702;DHT22;334;48.808;9.222;2023-06-04T04:05:01;17.80;1.00
702;DHT22;334;48.808;9.222;2023-06-04T04:06:04;17.80;1.00
702;DHT22;334;48.808;9.222;2023-06-04T04:07:06;17.80;1.00
702;DHT22;334;48.808;9.222;2023-06-04T04:08:08;17.80;1.00
702;DHT22;334;48.808;9.222;2023-06-04T04:09:10;17.80;1.00
702;DHT22;334;48.808;9.222;2023-06-04T04:10:12;17.80;1.00
702;DHT22;334;48.808;9.222;2023-06-04T04:11:15;17.80;1.00
702;DHT22;334;48.808;9.222;2023-06-04T04:12:19;17.80;1.00
702;DHT22;334;48.808;9.222;2023-06-04T04:13:21;17.80;1.00
702;DHT22;334;48.808;9.222;2023-06-04T04:14:23;17.90;1.00
702;DHT22;334;48.808;9.222;2023-06-04T04:15:26;17.90;1.00
702;DHT22;334;48.808;9.222;2023-06-04T04:16:28;17.90;1.00
702;DHT22;334;48.808;9.222;2023-06-04T04:17:42;17.90;1.00
702;DHT22;334;48.808;9.222;2023-06-04T04:18:44;17.90;1.00
702;DHT22;334;48.808;9.222;2023-06-04T04:19:48;17.90;1.00
702;DHT22;334;48.808;9.222;2023-06-04T04:20:49;18.00;1.00
702;DHT22;334;48.808;9.222;2023-06-04T04:21:51;18.00;1.00
702;DHT22;334;48.808;9.222;2023-06-04T04:22:53;18.00;1.00
702;DHT22;334;48.808;9.222;2023-06-04T04:23:55;18.00;1.00
702;DHT22;334;48.808;9.222;2023-06-04T04:24:57;18.00;1.00
702;DHT22;334;48.808;9.222;2023-06-04T04:25:59;18.00;1.00
702;DHT22;334;48.808;9.222;2023-06-04T04:27:01;18.00;1.00
702;DHT22;334;48.808;9.222;2023-06-04T04:28:05;18.00;1.00
702;DHT22;334;48.808;9.222;2023-06-04T04:29:10;18.00;1.00
702;DHT22;334;48.808;9.222;2023-06-04T04:30:12;18.10;1.00
702;DHT22;334;48.808;9.222;2023-06-04T04:31:14;18.10;1.00
702;DHT22;334;48.808;9.222;2023-06-04T04:32:17;18.10;1.00
702;DHT22;334;48.808;9.222;2023-06-04T04:33:18;18.10;1.00
702;DHT22;334;48.808;9.222;2023-06-04T04:34:20;18.10;1.00
702;DHT22;334;48.808;9.222;2023-06-04T04:35:22;18.10;1.00
702;DHT22;334;48.808;9.222;2023-06-04T04:36:25;18.20;1.00
702;DHT22;334;48.808;9.222;2023-06-04T04:37:27;18.10;1.00
702;DHT22;334;48.808;9.222;2023-06-04T04:38:29;18.20;1.00
702;DHT22;334;48.808;9.222;2023-06-04T04:39:32;18.10;1.00
702;DHT22;334;48.808;9.222;2023-06-04T04:40:34;18.10;1.00
702;DHT22;334;48.808;9.222;2023-06-04T04:41:37;18.10;1.00
702;DHT22;334;48.808;9.222;2023-06-04T04:42:39;18.10;1.00
702;DHT22;334;48.808;9.222;2023-06-04T04:43:41;18.20;1.00
702;DHT22;334;48.808;9.222;2023-06-04T04:44:45;18.20;1.00
702;DHT22;334;48.808;9.222;2023-06-04T04:45:49;18.20;1.00
702;DHT22;334;48.808;9.222;2023-06-04T04:46:52;18.20;1.00
702;DHT22;334;48.808;9.222;2023-06-04T04:47:53;18.20;1.00
702;DHT22;334;48.808;9.222;2023-06-04T04:48:55;18.20;1.00
702;DHT22;334;48.808;9.222;2023-06-04T04:49:57;18.20;1.00
702;DHT22;334;48.808;9.222;2023-06-04T04:50:59;18.30;1.00
702;DHT22;334;48.808;9.222;2023-06-04T04:52:01;18.30;1.00
702;DHT22;334;48.808;9.222;2023-06-04T04:53:03;18.30;1.00
702;DHT22;334;48.808;9.222;2023-06-04T04:54:05;18.30;1.00
702;DHT22;334;48.808;9.222;2023-06-04T04:55:07;18.30;1.00
702;DHT22;334;48.808;9.222;2023-06-04T04:56:09;18.30;1.00
702;DHT22;334;48.808;9.222;2023-06-04T04:57:11;18.30;1.00
702;DHT22;334;48.808;9.222;2023-06-04T04:58:15;18.30;1.00
702;DHT22;334;48.808;9.222;2023-06-04T04:59:17;18.30;1.00
702;DHT22;334;48.808;9.222;2023-06-04T05:00:19;18.30;1.00
702;DHT22;334;48.808;9.222;2023-06-04T05:01:22;18.30;1.00
702;DHT22;334;48.808;9.222;2023-06-04T05:02:25;18.30;1.00
702;DHT22;334;48.808;9.222;2023-06-04T05:03:27;18.30;1.00
702;DHT22;334;48.808;9.222;2023-06-04T05:04:29;18.30;1.00
702;DHT22;334;48.808;9.222;2023-06-04T05:05:33;18.30;1.00
702;DHT22;334;48.808;9.222;2023-06-04T05:06:35;18.30;1.00
702;DHT22;334;48.808;9.222;2023-06-04T05:07:37;18.30;1.00
702;DHT22;334;48.808;9.222;2023-06-04T05:08:39;18.30;1.00
702;DHT22;334;48.808;9.222;2023-06-04T05:09:41;18.40;1.00
702;DHT22;334;48.808;9.222;2023-06-04T05:10:44;18.40;1.00
702;DHT22;334;48.808;9.222;2023-06-04T05:11:46;18.40;1.00
702;DHT22;334;48.808;9.222;2023-06-04T05:12:56;18.40;1.00
702;DHT22;334;48.808;9.222;2023-06-04T05:13:58;18.50;1.00
702;DHT22;334;48.808;9.222;2023-06-04T05:15:02;18.50;1.00
702;DHT22;334;48.808;9.222;2023-06-04T05:16:06;18.50;1.00
702;DHT22;334;48.808;9.222;2023-06-04T05:17:08;18.50;1.00
702;DHT22;334;48.808;9.222;2023-06-04T05:18:12;18.50;1.00
702;DHT22;334;48.808;9.222;2023-06-04T05:19:15;18.50;1.00
702;DHT22;334;48.808;9.222;2023-06-04T05:20:19;18.50;1.00
702;DHT22;334;48.808;9.222;2023-06-04T05:21:22;18.40;1.00
702;DHT22;334;48.808;9.222;2023-06-04T05:22:24;18.40;1.00
702;DHT22;334;48.808;9.222;2023-06-04T05:23:30;18.40;1.00
702;DHT22;334;48.808;9.222;2023-06-04T05:24:36;18.40;1.00
702;DHT22;334;48.808;9.222;2023-06-04T05:25:38;18.50;1.00
702;DHT22;334;48.808;9.222;2023-06-04T05:26:40;18.50;1.00
702;DHT22;334;48.808;9.222;2023-06-04T05:27:42;18.60;1.00
702;DHT22;334;48.808;9.222;2023-06-04T05:28:43;18.60;1.00
702;DHT22;334;48.808;9.222;2023-06-04T05:29:45;18.60;1.00
702;DHT22;334;48.808;9.222;2023-06-04T05:30:47;18.70;1.00
702;DHT22;334;48.808;9.222;2023-06-04T05:31:50;18.70;1.00
702;DHT22;334;48.808;9.222;2023-06-04T05:32:52;18.70;1.00
702;DHT22;334;48.808;9.222;2023-06-04T05:33:55;18.80;1.00
702;DHT22;334;48.808;9.222;2023-06-04T05:34:58;18.80;1.00
702;DHT22;334;48.808;9.222;2023-06-04T05:36:00;18.80;1.00
702;DHT22;334;48.808;9.222;2023-06-04T05:37:01;18.90;1.00
702;DHT22;334;48.808;9.222;2023-06-04T05:38:05;18.90;1.00
702;DHT22;334;48.808;9.222;2023-06-04T05:39:07;18.90;1.00
702;DHT22;334;48.808;9.222;2023-06-04T05:40:11;18.90;1.00
702;DHT22;334;48.808;9.222;2023-06-04T05:41:13;19.00;1.00
702;DHT22;334;48.808;9.222;2023-06-04T05:42:14;19.00;1.00
702;DHT22;334;48.808;9.222;2023-06-04T05:43:16;19.00;1.00
702;DHT22;334;48.808;9.222;2023-06-04T05:44:18;19.00;1.00
702;DHT22;334;48.808;9.222;2023-06-04T05:45:20;19.00;1.00
702;DHT22;334;48.808;9.222;2023-06-04T05:46:22;19.10;1.00
702;DHT22;334;48.808;9.222;2023-06-04T05:47:24;19.10;1.00
702;DHT22;334;48.808;9.222;2023-06-04T05:48:26;19.20;1.00
702;DHT22;334;48.808;9.222;2023-06-04T05:49:28;19.30;1.00
702;DHT22;334;48.808;9.222;2023-06-04T05:50:29;19.30;1.00
702;DHT22;334;48.808;9.222;2023-06-04T05:51:32;19.40;1.00
702;DHT22;334;48.808;9.222;2023-06-04T05:52:33;19.50;1.00
702;DHT22;334;48.808;9.222;2023-06-04T05:53:35;19.50;1.00
702;DHT22;334;48.808;9.222;2023-06-04T05:54:38;19.60;1.00
702;DHT22;334;48.808;9.222;2023-06-04T05:55:39;19.70;1.00
702;DHT22;334;48.808;9.222;2023-06-04T05:56:41;19.80;1.00
702;DHT22;334;48.808;9.222;2023-06-04T05:57:43;19.90;1.00
702;DHT22;334;48.808;9.222;2023-06-04T05:58:51;20.00;1.00
702;DHT22;334;48.808;9.222;2023-06-04T05:59:53;20.10;1.00
702;DHT22;334;48.808;9.222;2023-06-04T06:00:55;20.10;1.00
702;DHT22;334;48.808;9.222;2023-06-04T06:01:57;20.30;1.00
702;DHT22;334;48.808;9.222;2023-06-04T06:03:00;20.30;1.00
702;DHT22;334;48.808;9.222;2023-06-04T06:04:03;20.40;1.00
702;DHT22;334;48.808;9.222;2023-06-04T06:05:05;20.50;1.00
702;DHT22;334;48.808;9.222;2023-06-04T06:06:09;20.50;1.00
702;DHT22;334;48.808;9.222;2023-06-04T06:07:15;20.60;1.00
702;DHT22;334;48.808;9.222;2023-06-04T06:08:17;20.70;1.00
702;DHT22;334;48.808;9.222;2023-06-04T06:09:19;20.70;1.00
702;DHT22;334;48.808;9.222;2023-06-04T06:10:21;20.70;1.00
702;DHT22;334;48.808;9.222;2023-06-04T06:11:24;20.80;1.00
702;DHT22;334;48.808;9.222;2023-06-04T06:12:28;20.90;1.00
702;DHT22;334;48.808;9.222;2023-06-04T06:13:30;20.90;1.00
702;DHT22;334;48.808;9.222;2023-06-04T06:14:33;20.90;1.00
702;DHT22;334;48.808;9.222;2023-06-04T06:15:34;21.00;1.00
702;DHT22;334;48.808;9.222;2023-06-04T06:16:40;20.90;1.00
702;DHT22;334;48.808;9.222;2023-06-04T06:17:46;21.10;1.00
702;DHT22;334;48.808;9.222;2023-06-04T06:18:50;21.20;1.00
702;DHT22;334;48.808;9.222;2023-06-04T06:19:52;21.20;1.00
702;DHT22;334;48.808;9.222;2023-06-04T06:20:56;21.30;1.00
702;DHT22;334;48.808;9.222;2023-06-04T06:22:00;21.40;1.00
702;DHT22;334;48.808;9.222;2023-06-04T06:23:08;21.50;1.00
702;DHT22;334;48.808;9.222;2023-06-04T06:24:12;21.50;1.00
702;DHT22;334;48.808;9.222;2023-06-04T06:25:16;21.60;1.00
702;DHT22;334;48.808;9.222;2023-06-04T06:26:18;21.70;1.00
702;DHT22;334;48.808;9.222;2023-06-04T06:27:24;21.70;1.00
702;DHT22;334;48.808;9.222;2023-06-04T06:28:28;21.80;1.00
702;DHT22;334;48.808;9.222;2023-06-04T06:29:30;21.80;1.00
702;DHT22;334;48.808;9.222;2023-06-04T06:30:32;21.90;1.00
702;DHT22;334;48.808;9.222;2023-06-04T06:31:34;21.90;1.00
702;DHT22;334;48.808;9.222;2023-06-04T06:32:36;22.00;1.00
702;DHT22;334;48.808;9.222;2023-06-04T06:33:38;21.90;1.00
702;DHT22;334;48.808;9.222;2023-06-04T06:34:43;21.90;1.00
702;DHT22;334;48.808;9.222;2023-06-04T06:35:44;21.90;1.00
702;DHT22;334;48.808;9.222;2023-06-04T06:36:48;22.00;1.00
702;DHT22;334;48.808;9.222;2023-06-04T06:37:51;22.00;1.00
702;DHT22;334;48.808;9.222;2023-06-04T06:38:55;22.00;1.00
702;DHT22;334;48.808;9.222;2023-06-04T06:39:57;22.10;1.00
702;DHT22;334;48.808;9.222;2023-06-04T06:40:59;22.10;1.00
702;DHT22;334;48.808;9.222;2023-06-04T06:42:01;22.10;1.00
702;DHT22;334;48.808;9.222;2023-06-04T06:43:03;22.20;1.00
702;DHT22;334;48.808;9.222;2023-06-04T06:44:05;22.20;1.00
702;DHT22;334;48.808;9.222;2023-06-04T06:45:07;22.30;1.00
702;DHT22;334;48.808;9.222;2023-06-04T06:46:10;22.20;1.00
702;DHT22;334;48.808;9.222;2023-06-04T06:47:15;22.20;1.00
702;DHT22;334;48.808;9.222;2023-06-04T06:48:16;22.20;1.00
702;DHT22;334;48.808;9.222;2023-06-04T06:49:18;22.30;1.00
702;DHT22;334;48.808;9.222;2023-06-04T06:50:20;22.30;1.00
702;DHT22;334;48.808;9.222;2023-06-04T06:51:22;22.30;1.00
702;DHT22;334;48.808;9.222;2023-06-04T06:52:24;22.20;1.00
702;DHT22;334;48.808;9.222;2023-06-04T06:53:26;22.30;1.00
702;DHT22;334;48.808;9.222;2023-06-04T06:54:28;22.20;1.00
702;DHT22;334;48.808;9.222;2023-06-04T06:55:29;22.20;1.00
702;DHT22;334;48.808;9.222;2023-06-04T06:56:31;22.20;1.00
702;DHT22;334;48.808;9.222;2023-06-04T06:57:33;22.40;1.00
702;DHT22;334;48.808;9.222;2023-06-04T06:58:35;22.30;1.00
702;DHT22;334;48.808;9.222;2023-06-04T06:59:37;22.30;1.00
702;DHT22;334;48.808;9.222;2023-06-04T07:00:39;22.30;1.00
702;DHT22;334;48.808;9.222;2023-06-04T07:01:41;22.40;1.00
702;DHT22;334;48.808;9.222;2023-06-04T07:02:43;22.40;1.00
702;DHT22;334;48.808;9.222;2023-06-04T07:03:45;22.40;1.00
702;DHT22;334;48.808;9.222;2023-06-04T07:04:47;22.40;1.00
702;DHT22;334;48.808;9.222;2023-06-04T07:05:49;22.40;1.00
702;DHT22;334;48.808;9.222;2023-06-04T07:06:51;22.30;1.00
702;DHT22;334;48.808;9.222;2023-06-04T07:07:53;22.30;1.00
702;DHT22;334;48.808;9.222;2023-06-04T07:08:56;22.20;1.00
702;DHT22;334;48.808;9.222;2023-06-04T07:09:58;22.10;1.00
702;DHT22;334;48.808;9.222;2023-06-04T07:11:01;22.10;1.00
702;DHT22;334;48.808;9.222;2023-06-04T07:12:04;22.00;1.00
702;DHT22;334;48.808;9.222;2023-06-04T07:13:06;22.00;1.00
702;DHT22;334;48.808;9.222;2023-06-04T07:14:08;22.00;1.00
702;DHT22;334;48.808;9.222;2023-06-04T07:15:10;22.00;1.00
702;DHT22;334;48.808;9.222;2023-06-04T07:16:15;22.00;1.00